Time;durP1;ratioP1;P1;durP2;ratioP2;P2;SDS_P1;SDS_P2;PMS_P1;PMS_P2;Temp;Humidity;BMP_temperature;BMP_pressure;BME280_temperature;BME280_humidity;BME280_pressure;Samples;Min_cycle;Max_cycle;Signal;HPM_P1;HPM_P2
2022/07/06 00:01:37;;;;;;;14.27;13.20;;;19.00;53.60;;;;;;5028686;28;20041;-83
2022/07/06 00:04:04;;;;;;;13.98;13.05;;;19.00;53.60;;;;;;5044841;28;20373;-83
2022/07/06 00:06:30;;;;;;;14.20;13.02;;;19.00;53.50;;;;;;5045145;28;20029;-83
2022/07/06 00:08:56;;;;;;;14.45;13.45;;;18.90;53.80;;;;;;5028208;28;20049;-83
2022/07/06 00:11:22;;;;;;;14.65;13.45;;;18.80;54.10;;;;;;5030521;28;20033;-83
2022/07/06 00:13:49;;;;;;;13.90;12.95;;;18.80;54.20;;;;;;5018895;28;20042;-83
2022/07/06 00:16:15;;;;;;;14.20;13.25;;;18.70;54.50;;;;;;5037353;28;20407;-83
2022/07/06 00:18:41;;;;;;;13.82;12.90;;;18.70;54.60;;;;;;5044434;28;20038;-83
2022/07/06 00:21:07;;;;;;;15.00;13.90;;;18.60;54.90;;;;;;5045055;28;20048;-83
2022/07/06 00:23:33;;;;;;;12.90;12.00;;;18.60;54.90;;;;;;5030647;28;20025;-83
2022/07/06 00:25:59;;;;;;;11.57;10.57;;;18.50;55.30;;;;;;5044703;28;20029;-83
2022/07/06 00:28:25;;;;;;;11.82;11.02;;;18.40;55.40;;;;;;5021995;28;20050;-83
2022/07/06 00:30:52;;;;;;;11.18;10.45;;;18.30;55.60;;;;;;5033030;28;20033;-83
2022/07/06 00:33:18;;;;;;;12.60;11.48;;;18.30;55.90;;;;;;5030788;28;20033;-83
2022/07/06 00:35:44;;;;;;;13.23;12.32;;;18.30;56.10;;;;;;5028617;28;20476;-83
2022/07/06 00:38:10;;;;;;;13.57;12.40;;;18.40;55.80;;;;;;5045467;28;20044;-83
2022/07/06 00:40:36;;;;;;;14.15;13.23;;;18.40;55.80;;;;;;5028164;28;20033;-83
2022/07/06 00:43:03;;;;;;;13.38;12.50;;;18.30;55.90;;;;;;5029419;28;20045;-84
2022/07/06 00:45:29;;;;;;;14.57;13.57;;;18.40;55.70;;;;;;5027820;28;20048;-83
2022/07/06 00:47:55;;;;;;;14.88;14.02;;;18.30;55.90;;;;;;5027909;28;20471;-83
2022/07/06 00:50:21;;;;;;;15.02;13.88;;;18.40;55.70;;;;;;5028971;28;20029;-83
2022/07/06 00:52:55;;;;;;;14.70;13.60;;;18.50;55.50;;;;;;5035189;28;20400;-83
2022/07/06 00:55:25;;;;;;;14.75;13.68;;;18.40;55.50;;;;;;5039049;28;20032;-83
2022/07/06 00:57:51;;;;;;;14.20;13.20;;;18.40;55.70;;;;;;5044207;28;20040;-83
2022/07/06 01:00:19;;;;;;;13.32;12.52;;;18.30;55.90;;;;;;5028863;28;20029;-83
2022/07/06 01:02:45;;;;;;;13.90;12.90;;;18.40;55.80;;;;;;5044210;28;20029;-83
2022/07/06 01:05:12;;;;;;;13.45;12.63;;;18.40;55.70;;;;;;5045139;28;20499;-83
2022/07/06 01:07:39;;;;;;;13.77;12.88;;;18.30;55.90;;;;;;5007260;28;20404;-83
2022/07/06 01:10:06;;;;;;;13.50;12.52;;;18.30;56.20;;;;;;5027940;28;20037;-83
2022/07/06 01:12:33;;;;;;;13.25;12.35;;;18.30;56.20;;;;;;5009349;28;20053;-83
2022/07/06 01:15:00;;;;;;;13.13;12.23;;;18.40;55.90;;;;;;5032792;28;20021;-83
2022/07/06 01:17:26;;;;;;;12.65;11.73;;;18.30;56.20;;;;;;5031817;28;20040;-83
2022/07/06 01:19:52;;;;;;;14.65;12.00;;;18.20;56.50;;;;;;5048205;28;20026;-82
2022/07/06 01:22:18;;;;;;;12.10;11.20;;;18.10;56.90;;;;;;5048416;28;20021;-83
2022/07/06 01:24:44;;;;;;;12.05;11.20;;;18.00;57.10;;;;;;5032816;28;20040;-83
2022/07/06 01:27:11;;;;;;;12.27;11.40;;;18.00;57.30;;;;;;5031447;28;20033;-83
2022/07/06 01:29:37;;;;;;;12.10;11.20;;;18.00;57.30;;;;;;5048671;28;20040;-83
2022/07/06 01:32:03;;;;;;;11.35;10.57;;;18.20;57.00;;;;;;5032322;28;20371;-83
2022/07/06 01:34:29;;;;;;;12.70;11.45;;;18.10;56.90;;;;;;5032756;28;20495;-83
2022/07/06 01:36:55;;;;;;;12.23;11.32;;;18.00;57.30;;;;;;5031391;28;20033;-83
2022/07/06 01:39:21;;;;;;;11.27;10.48;;;17.90;57.30;;;;;;5031349;28;20395;-83
2022/07/06 01:41:48;;;;;;;11.43;10.55;;;18.00;57.40;;;;;;5032735;28;20444;-82
2022/07/06 01:44:14;;;;;;;11.70;10.90;;;18.10;57.10;;;;;;5031766;28;20042;-83
2022/07/06 01:46:40;;;;;;;12.43;11.10;;;18.10;57.20;;;;;;5023167;28;20026;-83
2022/07/06 01:49:06;;;;;;;11.52;10.73;;;18.20;56.80;;;;;;5040377;28;20041;-83
2022/07/06 01:51:32;;;;;;;11.32;10.63;;;18.20;56.60;;;;;;5031085;28;20026;-83
2022/07/06 01:53:58;;;;;;;11.45;10.48;;;18.20;56.80;;;;;;5032578;28;20052;-83
2022/07/06 01:56:24;;;;;;;11.13;10.10;;;18.20;56.70;;;;;;5032046;28;20487;-83
2022/07/06 01:58:50;;;;;;;11.55;10.65;;;18.00;57.10;;;;;;5047435;28;20033;-83
2022/07/06 02:01:18;;;;;;;11.13;10.10;;;17.90;57.50;;;;;;5031381;28;20029;-83
2022/07/06 02:03:45;;;;;;;10.60;9.93;;;17.80;57.80;;;;;;5047546;28;20492;-83
2022/07/06 02:06:11;;;;;;;10.23;9.55;;;17.70;57.90;;;;;;5030902;28;20034;-83
2022/07/06 02:08:38;;;;;;;10.88;10.07;;;17.80;57.80;;;;;;5014782;28;20053;-83
2022/07/06 02:11:07;;;;;;;11.27;10.48;;;17.80;57.70;;;;;;5017057;28;20041;-83
2022/07/06 02:13:34;;;;;;;10.55;9.85;;;18.00;57.30;;;;;;5010412;28;20038;-83
2022/07/06 02:16:00;;;;;;;11.27;10.13;;;18.10;57.00;;;;;;5046305;28;20037;-83
2022/07/06 02:18:26;;;;;;;11.38;10.52;;;18.10;57.00;;;;;;5030783;28;20056;-83
2022/07/06 02:20:53;;;;;;;10.70;10.00;;;18.20;56.70;;;;;;5047178;28;20392;-83
2022/07/06 02:23:19;;;;;;;11.20;10.40;;;18.30;56.60;;;;;;5031732;28;20096;-83
2022/07/06 02:25:45;;;;;;;11.77;10.77;;;18.30;56.30;;;;;;5022393;28;20017;-83
2022/07/06 02:28:11;;;;;;;11.60;10.63;;;18.40;56.40;;;;;;5040021;28;20041;-83
2022/07/06 02:30:37;;;;;;;10.82;10.05;;;18.30;56.30;;;;;;5031013;28;20056;-83
2022/07/06 02:33:03;;;;;;;11.43;10.32;;;18.30;56.30;;;;;;5030378;28;20037;-83
2022/07/06 02:35:29;;;;;;;11.25;10.55;;;18.30;56.30;;;;;;5030567;28;20045;-83
2022/07/06 02:37:55;;;;;;;11.55;10.85;;;18.30;56.50;;;;;;5031655;28;20105;-82
2022/07/06 02:40:21;;;;;;;12.23;11.23;;;18.30;56.40;;;;;;5031383;28;20032;-82
2022/07/06 02:42:47;;;;;;;12.23;11.23;;;18.20;56.50;;;;;;5031562;28;20391;-83
2022/07/06 02:45:13;;;;;;;11.85;11.05;;;18.10;56.70;;;;;;5046055;28;20030;-83
2022/07/06 02:47:40;;;;;;;12.65;11.38;;;18.10;56.90;;;;;;5031603;28;20396;-83
2022/07/06 02:50:06;;;;;;;12.13;10.85;;;18.00;57.30;;;;;;5019693;28;20512;-83
2022/07/06 02:52:32;;;;;;;11.85;10.93;;;17.90;57.50;;;;;;5027548;28;20028;-83
2022/07/06 02:54:58;;;;;;;11.40;10.23;;;17.80;57.60;;;;;;5031312;28;20041;-83
2022/07/06 02:57:25;;;;;;;10.90;10.10;;;17.90;57.40;;;;;;5029991;28;20033;-82
2022/07/06 02:59:51;;;;;;;11.38;10.45;;;17.80;57.60;;;;;;5030619;28;20052;-82
2022/07/06 03:02:17;;;;;;;10.70;9.90;;;17.80;57.70;;;;;;5031649;28;20033;-82
2022/07/06 03:04:43;;;;;;;10.23;9.57;;;17.80;57.70;;;;;;5029593;28;20357;-82
2022/07/06 03:07:09;;;;;;;15.48;10.07;;;17.80;57.80;;;;;;5046224;28;20037;-83
2022/07/06 03:09:35;;;;;;;11.02;10.10;;;17.70;58.10;;;;;;5009757;28;20042;-83
2022/07/06 03:12:01;;;;;;;10.60;9.80;;;17.60;58.50;;;;;;5029580;28;20040;-83
2022/07/06 03:14:28;;;;;;;10.90;9.88;;;17.50;58.80;;;;;;5030090;28;20500;-82
2022/07/06 03:16:54;;;;;;;11.75;9.82;;;17.40;59.00;;;;;;5001854;28;20041;-83
2022/07/06 03:19:20;;;;;;;9.98;9.30;;;17.50;58.90;;;;;;5028513;28;20026;-82
2022/07/06 03:21:47;;;;;;;11.75;10.65;;;17.40;59.40;;;;;;5035026;28;20029;-82
2022/07/06 03:24:13;;;;;;;11.02;10.20;;;17.10;60.30;;;;;;5013451;28;20515;-83
2022/07/06 03:26:39;;;;;;;11.82;10.80;;;17.10;60.10;;;;;;5032953;28;20033;-82
2022/07/06 03:29:05;;;;;;;11.40;10.20;;;17.20;59.90;;;;;;5035020;28;20408;-82
2022/07/06 03:31:31;;;;;;;10.85;10.10;;;17.20;60.30;;;;;;5030513;28;20041;-82
2022/07/06 03:33:57;;;;;;;11.25;10.32;;;17.20;60.10;;;;;;5017250;28;20407;-83
2022/07/06 03:36:23;;;;;;;10.77;10.07;;;17.10;60.50;;;;;;5013856;28;20037;-82
2022/07/06 03:38:49;;;;;;;11.40;10.38;;;17.10;60.70;;;;;;5031335;28;20468;-83
2022/07/06 03:41:15;;;;;;;11.48;10.57;;;17.00;61.10;;;;;;5017935;28;20025;-82
2022/07/06 03:43:41;;;;;;;11.13;10.23;;;16.80;61.80;;;;;;5016552;28;20455;-83
2022/07/06 03:46:08;;;;;;;10.38;9.60;;;16.80;62.00;;;;;;5030153;28;20040;-83
2022/07/06 03:48:34;;;;;;;10.80;9.95;;;16.70;62.10;;;;;;5034100;28;20037;-82
2022/07/06 03:51:00;;;;;;;10.98;10.13;;;16.80;61.90;;;;;;5030847;28;20396;-83
2022/07/06 03:53:26;;;;;;;10.55;9.68;;;16.80;61.90;;;;;;5033594;28;20037;-83
2022/07/06 03:58:37;;;;;;;12.38;11.27;;;17.00;61.40;;;;;;5038904;28;20040;-83
2022/07/06 04:01:03;;;;;;;12.75;11.75;;;16.90;61.40;;;;;;5024447;28;20476;-83
2022/07/06 04:03:29;;;;;;;12.70;11.60;;;17.00;61.20;;;;;;5032742;28;20033;-82
2022/07/06 04:05:55;;;;;;;11.52;10.57;;;17.10;60.50;;;;;;5016433;28;20981;-82
2022/07/06 04:08:21;;;;;;;11.40;10.25;;;17.10;60.80;;;;;;5015383;28;20050;-83
2022/07/06 04:10:47;;;;;;;10.98;10.07;;;17.20;60.30;;;;;;5016850;28;20392;-83
2022/07/06 04:13:13;;;;;;;12.75;10.95;;;17.20;60.30;;;;;;5033906;28;20480;-83
2022/07/06 04:15:39;;;;;;;12.00;11.10;;;17.20;60.30;;;;;;5016432;28;20056;-83
2022/07/06 04:18:06;;;;;;;12.68;11.55;;;17.30;60.40;;;;;;5028477;28;20723;-83
2022/07/06 04:20:32;;;;;;;12.52;11.52;;;17.30;60.30;;;;;;5029296;28;20033;-82
2022/07/06 04:22:58;;;;;;;12.00;10.90;;;17.30;60.70;;;;;;5017731;28;20038;-83
2022/07/06 04:25:24;;;;;;;12.88;11.50;;;17.30;59.90;;;;;;5039743;28;20510;-83
2022/07/06 04:27:50;;;;;;;11.88;11.10;;;17.20;60.80;;;;;;5028143;28;20057;-82
2022/07/06 04:30:16;;;;;;;11.45;10.75;;;17.00;61.60;;;;;;5027905;28;20025;-83
2022/07/06 04:32:43;;;;;;;12.23;11.07;;;17.00;61.80;;;;;;5045052;28;20036;-83
2022/07/06 04:35:09;;;;;;;11.98;10.93;;;16.80;62.30;;;;;;5028490;28;20041;-83
2022/07/06 04:37:35;;;;;;;12.25;11.00;;;16.80;62.80;;;;;;5028289;28;20032;-82
2022/07/06 04:40:01;;;;;;;11.32;10.43;;;16.70;63.30;;;;;;5027674;28;20037;-82
2022/07/06 04:42:27;;;;;;;11.35;10.57;;;16.60;63.60;;;;;;5029457;28;20044;-82
2022/07/06 04:44:53;;;;;;;11.90;11.07;;;16.70;63.20;;;;;;5029456;28;20040;-82
2022/07/06 04:47:19;;;;;;;12.02;11.02;;;16.80;63.30;;;;;;5016012;28;20481;-82
2022/07/06 04:49:45;;;;;;;12.02;10.70;;;16.80;63.10;;;;;;5031323;28;20049;-83
2022/07/06 04:52:12;;;;;;;11.63;10.82;;;16.80;63.00;;;;;;5048860;28;20025;-82
2022/07/06 04:54:38;;;;;;;14.02;10.60;;;16.80;63.30;;;;;;5033199;28;20033;-82
2022/07/06 04:57:04;;;;;;;10.65;9.85;;;16.70;63.50;;;;;;5048975;28;20594;-83
2022/07/06 04:59:30;;;;;;;10.93;10.15;;;16.80;63.60;;;;;;5032995;28;20029;-82
2022/07/06 05:01:56;;;;;;;12.77;11.77;;;16.80;63.80;;;;;;5037182;28;20045;-83
2022/07/06 05:04:24;;;;;;;13.07;11.98;;;16.80;64.00;;;;;;5043353;28;20033;-82
2022/07/06 05:06:50;;;;;;;12.32;11.43;;;16.80;63.80;;;;;;5048315;28;20152;-83
2022/07/06 05:09:16;;;;;;;12.30;11.40;;;16.70;64.60;;;;;;5047407;28;20555;-83
2022/07/06 05:11:42;;;;;;;23.38;20.73;;;16.70;65.00;;;;;;5048904;28;20036;-83
2022/07/06 05:14:08;;;;;;;15.07;13.88;;;16.70;65.20;;;;;;5031705;28;20041;-83
2022/07/06 05:16:34;;;;;;;16.00;14.60;;;16.80;65.20;;;;;;5032254;28;20033;-83
2022/07/06 05:19:00;;;;;;;30.17;27.63;;;17.00;64.60;;;;;;5033133;28;20036;-83
2022/07/06 05:21:27;;;;;;;16.95;15.65;;;17.10;64.60;;;;;;5032934;28;20034;-83
2022/07/06 05:23:53;;;;;;;14.10;12.98;;;17.40;63.70;;;;;;5015382;28;20045;-83
2022/07/06 05:26:19;;;;;;;15.65;14.27;;;17.60;62.90;;;;;;5020103;28;20377;-83
2022/07/06 05:28:45;;;;;;;14.27;12.95;;;17.60;62.70;;;;;;5019886;28;20053;-83
2022/07/06 05:31:11;;;;;;;12.80;12.00;;;17.70;62.70;;;;;;5036324;28;20057;-83
2022/07/06 05:33:37;;;;;;;20.55;17.30;;;17.80;62.30;;;;;;5020007;28;20415;-83
2022/07/06 05:36:04;;;;;;;19.10;17.13;;;18.00;62.30;;;;;;5033129;28;20469;-83
2022/07/06 05:38:30;;;;;;;15.85;14.55;;;18.20;61.20;;;;;;5032145;28;20384;-83
2022/07/06 05:40:56;;;;;;;17.75;16.15;;;18.30;61.20;;;;;;5020759;28;20054;-84
2022/07/06 05:43:22;;;;;;;17.60;15.88;;;18.30;61.00;;;;;;5025906;28;20033;-84
2022/07/06 05:45:48;;;;;;;13.15;12.15;;;18.40;60.90;;;;;;5030312;28;20487;-83
2022/07/06 05:50:59;;;;;;;18.10;16.17;;;18.40;61.10;;;;;;5038163;28;20047;-83
2022/07/06 05:53:25;;;;;;;15.23;13.82;;;18.40;61.80;;;;;;5031650;28;20029;-83
2022/07/06 05:55:51;;;;;;;12.88;11.68;;;18.30;62.20;;;;;;5047692;28;20041;-83
2022/07/06 05:58:17;;;;;;;13.18;11.88;;;18.40;62.40;;;;;;5047347;28;20040;-84
2022/07/06 06:00:43;;;;;;;26.67;19.27;;;18.30;62.90;;;;;;5047144;28;20037;-83
2022/07/06 06:03:09;;;;;;;17.92;15.77;;;18.40;62.60;;;;;;5030871;28;20029;-83
2022/07/06 06:05:36;;;;;;;14.27;12.88;;;18.50;62.80;;;;;;5036735;28;20026;-84
2022/07/06 06:08:02;;;;;;;16.83;15.05;;;18.60;62.50;;;;;;5046629;28;20044;-83
2022/07/06 06:10:28;;;;;;;20.33;16.75;;;18.60;62.40;;;;;;5014352;28;20052;-83
2022/07/06 06:12:54;;;;;;;19.60;16.33;;;18.60;62.80;;;;;;5047251;28;20029;-84
2022/07/06 06:15:20;;;;;;;20.27;17.58;;;18.80;62.40;;;;;;5046955;28;20033;-84
2022/07/06 06:17:47;;;;;;;18.83;14.90;;;18.90;62.20;;;;;;5032230;28;20029;-84
2022/07/06 06:20:14;;;;;;;20.58;15.00;;;19.10;61.60;;;;;;5018572;28;20026;-84
2022/07/06 06:22:50;;;;;;;12.52;11.48;;;19.10;62.10;;;;;;5010657;28;20045;-84
2022/07/06 06:25:17;;;;;;;13.65;12.35;;;18.90;62.80;;;;;;5047007;28;20029;-84
2022/07/06 06:27:43;;;;;;;22.20;15.23;;;18.90;63.20;;;;;;5030622;28;20491;-84
2022/07/06 06:30:10;;;;;;;14.60;12.50;;;18.90;63.20;;;;;;5031284;28;20064;-83
2022/07/06 06:32:36;;;;;;;13.40;12.30;;;19.10;63.10;;;;;;5014704;28;20053;-83
2022/07/06 06:35:03;;;;;;;13.27;12.18;;;19.20;62.80;;;;;;5030528;28;20496;-83
2022/07/06 06:37:29;;;;;;;13.60;12.60;;;19.20;62.90;;;;;;5013214;28;20037;-84
2022/07/06 06:39:55;;;;;;;13.73;12.43;;;19.20;62.70;;;;;;5031504;28;20043;-84
2022/07/06 06:42:21;;;;;;;13.23;12.23;;;19.40;62.50;;;;;;5030512;28;20036;-84
2022/07/06 06:44:47;;;;;;;12.98;12.10;;;19.50;62.20;;;;;;5015743;28;20029;-84
2022/07/06 06:47:13;;;;;;;18.73;17.42;;;19.60;61.90;;;;;;5031684;28;20423;-84
2022/07/06 06:49:39;;;;;;;14.57;13.45;;;19.50;62.00;;;;;;5021344;28;20583;-84
2022/07/06 06:52:06;;;;;;;13.25;12.25;;;19.50;62.40;;;;;;5018288;28;20045;-83
2022/07/06 06:54:32;;;;;;;12.70;11.60;;;19.50;62.40;;;;;;5017781;28;20041;-84
2022/07/06 06:56:58;;;;;;;13.65;12.25;;;19.60;62.20;;;;;;5046623;28;20467;-84
2022/07/06 06:59:24;;;;;;;14.80;13.65;;;19.80;62.00;;;;;;5026286;28;20041;-84
2022/07/06 07:01:51;;;;;;;15.18;13.68;;;20.00;61.20;;;;;;5019229;28;20397;-84
2022/07/06 07:04:17;;;;;;;16.83;15.43;;;20.00;60.60;;;;;;5040599;28;20033;-84
2022/07/06 07:06:43;;;;;;;15.95;14.82;;;20.10;60.10;;;;;;5046876;28;20026;-84
2022/07/06 07:09:09;;;;;;;18.55;17.25;;;20.10;60.40;;;;;;5032224;28;20042;-83
2022/07/06 07:11:35;;;;;;;20.38;19.00;;;20.20;60.00;;;;;;5015018;28;20041;-83
2022/07/06 07:14:02;;;;;;;19.42;18.23;;;20.30;59.60;;;;;;5019787;28;20038;-84
2022/07/06 07:16:28;;;;;;;20.77;19.17;;;20.30;59.70;;;;;;5026633;28;20038;-83
2022/07/06 07:18:54;;;;;;;22.77;21.00;;;20.40;59.80;;;;;;5031052;28;20040;-83
2022/07/06 07:21:21;;;;;;;23.17;21.45;;;20.50;59.20;;;;;;5031278;28;20037;-84
2022/07/06 07:23:47;;;;;;;22.70;21.10;;;20.60;59.00;;;;;;5047090;28;20029;-84
2022/07/06 07:26:13;;;;;;;18.88;17.40;;;20.80;58.90;;;;;;5046751;28;20025;-84
2022/07/06 07:28:39;;;;;;;18.17;16.95;;;20.80;57.80;;;;;;5029398;28;20068;-84
2022/07/06 07:31:05;;;;;;;19.30;17.85;;;20.90;57.60;;;;;;5030213;28;20048;-84
2022/07/06 07:33:31;;;;;;;18.92;17.77;;;21.00;57.70;;;;;;5030405;28;20025;-84
2022/07/06 07:35:58;;;;;;;15.88;14.90;;;21.10;56.00;;;;;;5045729;28;20499;-84
2022/07/06 07:38:24;;;;;;;18.02;16.35;;;21.10;56.30;;;;;;5017548;28;20022;-84
2022/07/06 07:40:50;;;;;;;18.95;17.65;;;21.30;56.20;;;;;;5017629;28;20515;-84
2022/07/06 07:43:16;;;;;;;19.13;17.83;;;21.50;55.60;;;;;;5019079;28;20052;-84
2022/07/06 07:45:42;;;;;;;18.95;17.35;;;21.50;55.30;;;;;;5034221;28;20029;-84
2022/07/06 07:48:09;;;;;;;18.98;17.77;;;21.60;55.50;;;;;;5045291;28;20506;-84
2022/07/06 07:50:35;;;;;;;20.50;19.02;;;21.80;54.80;;;;;;5031039;28;20480;-81
2022/07/06 07:53:01;;;;;;;18.52;17.20;;;21.70;55.00;;;;;;5017712;28;20049;-82
2022/07/06 07:55:27;;;;;;;19.80;18.30;;;21.90;54.10;;;;;;5018883;28;20041;-84
2022/07/06 07:57:54;;;;;;;21.67;20.38;;;22.00;53.60;;;;;;5021134;28;20029;-84
2022/07/06 08:00:21;;;;;;;21.27;19.92;;;22.10;53.00;;;;;;5029746;28;20029;-84
2022/07/06 08:02:48;;;;;;;21.55;19.77;;;22.20;53.10;;;;;;5029024;28;20030;-85
2022/07/06 08:05:15;;;;;;;23.45;21.35;;;22.50;53.10;;;;;;5045861;28;20052;-84
2022/07/06 08:07:44;;;;;;;27.35;25.75;;;22.60;51.40;;;;;;5028679;28;20388;-84
2022/07/06 08:10:11;;;;;;;21.17;19.88;;;22.80;50.50;;;;;;5029804;28;20063;-84
2022/07/06 08:12:37;;;;;;;23.50;22.02;;;22.70;50.40;;;;;;5008798;28;20040;-85
2022/07/06 08:15:04;;;;;;;21.70;20.40;;;22.80;50.30;;;;;;5029306;28;20030;-83
2022/07/06 08:17:30;;;;;;;24.10;22.42;;;22.80;50.60;;;;;;5030302;28;20032;-85
2022/07/06 08:19:56;;;;;;;25.92;24.40;;;22.70;51.00;;;;;;5027940;28;20543;-85
2022/07/06 08:22:23;;;;;;;21.95;20.55;;;22.90;50.50;;;;;;5028416;28;20028;-85
2022/07/06 08:24:49;;;;;;;25.02;22.90;;;22.90;50.20;;;;;;5044989;28;20030;-85
2022/07/06 08:27:15;;;;;;;24.70;23.20;;;23.00;49.80;;;;;;5045121;28;20025;-85
2022/07/06 08:29:41;;;;;;;23.13;21.73;;;23.10;49.70;;;;;;5028446;28;20049;-85
2022/07/06 08:32:07;;;;;;;23.42;21.98;;;23.00;49.90;;;;;;5028111;28;20029;-84
2022/07/06 08:34:33;;;;;;;24.45;23.05;;;23.00;50.40;;;;;;5028215;28;20033;-85
2022/07/06 08:36:59;;;;;;;26.15;24.65;;;23.20;50.70;;;;;;5011902;28;20033;-85
2022/07/06 08:39:25;;;;;;;34.15;32.15;;;23.40;49.60;;;;;;5029599;28;20033;-85
2022/07/06 08:41:52;;;;;;;33.78;31.77;;;23.60;48.40;;;;;;5028855;28;20029;-85
2022/07/06 08:44:18;;;;;;;30.50;28.27;;;23.70;48.50;;;;;;5029108;28;20036;-85
2022/07/06 08:46:44;;;;;;;31.45;29.73;;;23.60;48.40;;;;;;5027357;28;20319;-85
2022/07/06 08:49:15;;;;;;;32.47;30.65;;;23.60;48.20;;;;;;5029378;28;20041;-85
2022/07/06 08:51:41;;;;;;;31.80;29.83;;;23.70;48.20;;;;;;5029417;28;20033;-85
2022/07/06 08:54:07;;;;;;;37.70;35.70;;;23.90;48.10;;;;;;5044797;28;20038;-86
2022/07/06 08:56:34;;;;;;;35.80;33.75;;;24.00;47.70;;;;;;5030076;28;20074;-85
2022/07/06 08:59:00;;;;;;;33.92;32.03;;;24.30;47.40;;;;;;5017982;28;20100;-85
2022/07/06 09:01:26;;;;;;;35.25;33.10;;;24.20;46.60;;;;;;5039183;28;20038;-85
2022/07/06 09:03:52;;;;;;;35.42;33.47;;;24.30;46.70;;;;;;5044641;28;20400;-85
2022/07/06 09:06:22;;;;;;;34.00;31.83;;;24.40;46.00;;;;;;5028093;28;20036;-85
2022/07/06 09:08:49;;;;;;;33.63;31.73;;;24.60;45.90;;;;;;5012129;28;20053;-85
2022/07/06 09:11:15;;;;;;;30.27;28.13;;;24.40;46.10;;;;;;5016237;28;20420;-85
2022/07/06 09:13:41;;;;;;;30.40;28.80;;;24.50;45.30;;;;;;5016893;28;20057;-85
2022/07/06 09:16:11;;;;;;;29.55;27.48;;;24.60;45.10;;;;;;5017269;28;20037;-85
2022/07/06 09:18:38;;;;;;;25.70;24.00;;;24.80;45.80;;;;;;5016658;28;20033;-85
2022/07/06 09:21:05;;;;;;;26.23;24.80;;;25.00;43.70;;;;;;5012200;28;20638;-85
2022/07/06 09:23:31;;;;;;;26.23;24.73;;;25.10;43.10;;;;;;5029972;28;20025;-85
2022/07/06 09:25:57;;;;;;;27.30;25.48;;;25.30;43.10;;;;;;5027847;28;20502;-85
2022/07/06 09:28:25;;;;;;;26.98;25.48;;;25.30;42.90;;;;;;5029202;28;20033;-85
2022/07/06 09:30:54;;;;;;;26.65;25.15;;;25.30;42.50;;;;;;5008780;28;20396;-85
2022/07/06 09:33:20;;;;;;;28.92;27.20;;;25.30;43.60;;;;;;5028939;28;20034;-86
2022/07/06 09:35:47;;;;;;;28.40;26.52;;;25.40;42.40;;;;;;5031689;28;20492;-86
2022/07/06 09:38:14;;;;;;;29.30;27.55;;;25.30;42.50;;;;;;5032146;28;20029;-85
2022/07/06 09:40:42;;;;;;;34.75;32.85;;;25.50;42.90;;;;;;5031520;28;20040;-86
2022/07/06 09:43:15;;;;;;;28.25;26.65;;;25.70;42.00;;;;;;5032714;28;20361;-85
2022/07/06 09:45:46;;;;;;;31.23;29.30;;;25.60;41.90;;;;;;5031914;28;20036;-85
2022/07/06 09:48:13;;;;;;;;;;;25.80;41.60;;;;;;5032257;28;20021;-85
2022/07/06 09:50:46;;;;;;;31.40;29.48;;;25.80;41.40;;;;;;5031612;28;19917;-86
2022/07/06 09:53:12;;;;;;;27.83;26.33;;;25.80;41.10;;;;;;5031471;28;20032;-85
2022/07/06 09:55:39;;;;;;;27.48;25.65;;;25.40;42.10;;;;;;5006154;28;20518;-86
2022/07/06 09:58:05;;;;;;;32.17;30.33;;;25.50;42.20;;;;;;5036413;28;20026;-85
2022/07/06 10:00:31;;;;;;;36.95;34.65;;;25.50;41.10;;;;;;5018277;28;20476;-86
2022/07/06 10:02:57;;;;;;;32.50;30.70;;;25.70;40.90;;;;;;4998343;28;20037;-86
2022/07/06 10:05:29;;;;;;;30.17;28.55;;;25.50;40.20;;;;;;5036608;28;20427;-85
2022/07/06 10:07:57;;;;;;;32.47;30.73;;;25.70;40.90;;;;;;5015341;28;20053;-86
2022/07/06 10:10:27;;;;;;;33.67;31.90;;;25.90;39.70;;;;;;5025485;28;20046;-85
2022/07/06 10:12:57;;;;;;;43.85;41.38;;;25.90;39.60;;;;;;5035811;28;20033;-86
2022/07/06 10:15:26;;;;;;;33.28;31.58;;;25.90;38.60;;;;;;5033988;28;20037;-85
2022/07/06 10:17:54;;;;;;;32.43;30.77;;;25.80;38.70;;;;;;5047658;28;20021;-85
2022/07/06 10:20:20;;;;;;;31.13;29.52;;;25.70;39.80;;;;;;5031754;28;20046;-85
2022/07/06 10:22:49;;;;;;;29.90;28.38;;;25.60;40.30;;;;;;5032375;28;20048;-85
2022/07/06 10:25:16;;;;;;;34.05;32.30;;;25.70;40.50;;;;;;5030591;28;20037;-85
2022/07/06 10:27:42;;;;;;;32.28;30.52;;;25.80;39.40;;;;;;5031355;28;20037;-85
2022/07/06 10:30:09;;;;;;;33.15;31.33;;;25.80;39.90;;;;;;5030176;28;20052;-85
2022/07/06 10:32:36;;;;;;;34.65;32.85;;;26.00;39.60;;;;;;5011077;28;20484;-85
2022/07/06 10:35:03;;;;;;;33.80;31.80;;;26.10;39.40;;;;;;5047030;28;20045;-85
2022/07/06 10:37:29;;;;;;;33.17;31.38;;;25.90;40.30;;;;;;5026338;28;20033;-85
2022/07/06 10:42:43;;;;;;;36.25;34.35;;;26.20;39.20;;;;;;5034525;28;20036;-85
2022/07/06 10:45:11;;;;;;;34.97;33.28;;;26.20;38.20;;;;;;5028653;28;20045;-84
2022/07/06 10:47:37;;;;;;;34.53;32.72;;;26.20;38.50;;;;;;5014080;28;20041;-85
2022/07/06 10:50:04;;;;;;;33.13;31.15;;;26.30;38.60;;;;;;5019949;28;20038;-85
2022/07/06 10:52:49;;;;;;;34.00;32.20;;;26.40;38.60;;;;;;5035471;28;20032;-86
2022/07/06 10:55:30;;;;;;;31.45;29.50;;;26.60;38.80;;;;;;5020235;28;20030;-84
2022/07/06 10:57:56;;;;;;;33.42;31.33;;;26.70;39.70;;;;;;5022689;28;20037;-85
2022/07/06 11:00:22;;;;;;;35.50;33.45;;;26.80;39.20;;;;;;5013246;28;20045;-86
2022/07/06 11:02:49;;;;;;;35.38;33.55;;;26.90;38.90;;;;;;5029896;28;20037;-86
2022/07/06 11:05:40;;;;;;;33.47;31.48;;;27.00;38.80;;;;;;5047964;28;20040;-85
2022/07/06 11:08:10;;;;;;;33.80;31.90;;;27.00;38.80;;;;;;5026634;28;20400;-85
2022/07/06 11:10:48;;;;;;;35.50;33.35;;;26.80;38.70;;;;;;5031757;28;20053;-85
2022/07/06 11:13:27;;;;;;;34.35;32.35;;;26.70;38.90;;;;;;5046280;28;20468;-86
2022/07/06 11:16:02;;;;;;;57.80;54.47;;;26.90;38.70;;;;;;5044773;28;20033;-85
2022/07/06 11:18:28;;;;;;;32.78;31.08;;;27.00;39.40;;;;;;5033693;28;20036;-85
2022/07/06 11:21:17;;;;;;;48.45;45.65;;;27.10;38.90;;;;;;5046271;28;20037;-86
2022/07/06 11:23:44;;;;;;;36.63;34.63;;;27.10;38.50;;;;;;5026826;28;20048;-86
2022/07/06 11:26:12;;;;;;;33.67;31.75;;;26.80;39.10;;;;;;5046346;28;20161;-86
2022/07/06 11:28:38;;;;;;;37.60;35.65;;;26.80;39.40;;;;;;5029666;28;20041;-85
2022/07/06 11:31:04;;;;;;;50.85;48.22;;;26.90;38.40;;;;;;5042118;28;20061;-86
2022/07/06 11:33:30;;;;;;;38.05;36.10;;;27.10;38.30;;;;;;5033852;28;20052;-86
2022/07/06 11:36:15;;;;;;;34.08;31.95;;;26.90;38.40;;;;;;5030425;28;20041;-86
2022/07/06 11:38:41;;;;;;;36.90;34.67;;;26.80;38.30;;;;;;5027828;28;20753;-86
2022/07/06 11:41:07;;;;;;;36.60;34.42;;;26.90;38.20;;;;;;5033912;28;20038;-86
2022/07/06 11:43:34;;;;;;;33.88;32.03;;;26.90;38.20;;;;;;5008965;28;20044;-86
2022/07/06 11:46:00;;;;;;;35.63;33.55;;;26.90;38.10;;;;;;5045394;28;20070;-86
2022/07/06 11:48:26;;;;;;;36.05;34.15;;;27.00;38.40;;;;;;5029479;28;20045;-85
2022/07/06 11:51:02;;;;;;;36.15;34.05;;;27.10;38.10;;;;;;5030389;28;20037;-86
2022/07/06 11:53:28;;;;;;;37.35;35.45;;;27.30;38.10;;;;;;5031246;28;20519;-86
2022/07/06 11:55:54;;;;;;;39.83;37.53;;;27.40;37.60;;;;;;5027970;28;20041;-86
2022/07/06 11:58:24;;;;;;;42.88;40.78;;;27.20;37.30;;;;;;5030234;28;20048;-86
2022/07/06 12:01:06;;;;;;;63.88;60.60;;;27.10;37.70;;;;;;5028541;28;20033;-86
2022/07/06 12:03:32;;;;;;;36.25;34.35;;;27.10;37.30;;;;;;5045010;28;20037;-86
2022/07/06 12:05:59;;;;;;;36.67;34.58;;;27.00;37.50;;;;;;5030009;28;20035;-86
2022/07/06 12:08:25;;;;;;;35.38;33.47;;;27.00;37.60;;;;;;5029538;28;20053;-85
2022/07/06 12:10:52;;;;;;;49.22;46.67;;;27.00;38.10;;;;;;5034969;28;20140;-86
2022/07/06 12:13:18;;;;;;;37.63;35.63;;;27.20;37.40;;;;;;5017182;28;20041;-86
2022/07/06 12:15:44;;;;;;;37.45;35.35;;;27.10;38.10;;;;;;5033612;28;20033;-86
2022/07/06 12:18:11;;;;;;;36.58;34.63;;;27.20;37.90;;;;;;5015139;28;20399;-85
2022/07/06 12:20:37;;;;;;;1999.90;999.90;;;27.40;39.30;;;;;;5029183;28;20033;-86
2022/07/06 12:23:04;;;;;;;1999.90;999.90;;;27.70;37.60;;;;;;5017690;28;20033;-86
2022/07/06 12:25:34;;;;;;;1999.90;999.90;;;27.80;37.00;;;;;;5040271;28;20022;-86
2022/07/06 12:28:00;;;;;;;1999.90;999.90;;;27.80;36.50;;;;;;5045041;28;20025;-85
2022/07/06 12:30:26;;;;;;;1999.90;999.90;;;27.90;36.50;;;;;;5029520;28;20048;-86
2022/07/06 12:33:15;;;;;;;1999.90;999.90;;;28.00;36.60;;;;;;5044998;28;20056;-86
2022/07/06 12:35:42;;;;;;;1999.90;999.90;;;28.40;36.40;;;;;;5026704;28;20041;-86